Loïc Lerenard

Loïc Lerenard

Statistiques 2019

  • Nb de partants : 183
  • Nb de victoires : 14
  • Nb de places : 37
  • Écart gagnant : 6
  • Réussite à la gagne : 8%
  • Réussite à la place : 20%
Musique : 3m 0m 0m 2m 6a Da 5a 1a 5a Da 3m Dm Dm 9a 0m Dm 6a 0m
ChevalDernière courseCoursesVictoiresR. à la gagnePlacésR. à la place
Arenga de Neret 21/05/19 89 7 8% 24 27%
Bonviva 21/05/19 69 6 9% 17 25%
Caid de Chanlecy 21/05/19 31 8 26% 11 35%
Come On du Vallon 21/05/19 46 9 20% 14 30%
Guepard Griff 18/05/19 4 0 - 0 -
Goliath du Caux 18/05/19 9 1 11% 1 11%
Eternal Wood 18/05/19 39 1 3% 5 13%
Etna Pole 18/05/19 33 2 6% 8 24%
Fangio des Iris 18/05/19 12 2 17% 5 42%
Felin du Loisir 18/05/19 13 1 8% 3 23%
Canto de Bertrange 18/05/19 42 2 5% 11 26%
Coyote du Caux 18/05/19 35 4 11% 11 31%
Dgin du Caux 18/05/19 43 3 7% 11 26%
Eva de Clerlande 18/05/19 27 2 7% 5 19%
Eureka de Chenou 16/05/19 23 4 17% 5 22%
Bijou des Loups 16/05/19 58 4 7% 19 33%
Bella Cruz 14/05/19 58 6 10% 16 28%
Guinness du Vallon 11/05/19 5 0 - 1 20%
Galaxie du Loisir 11/05/19 3 1 33% 2 67%
Extravaganza 11/05/19 23 2 9% 4 17%
Emilie des Iris 11/05/19 15 1 7% 5 33%
Dis Moi Oui 11/05/19 27 2 7% 5 19%
Fortuna de Coudde 28/04/19 3 0 - 0 -
Grimm 26/04/19 3 0 - 0 -
Eclat des Noix 24/04/19 30 5 17% 11 37%
Feria Fratelli 22/04/19 15 1 7% 3 20%
Ecu du Chassin 21/04/19 11 1 9% 3 27%
Felicia de Forges 21/04/19 0 0 - 0 -
Gaspard des Loups 21/04/19 3 0 - 0 -
Flore du Vallon 21/04/19 4 0 - 0 -
Elite Speed 12/04/19 23 2 9% 7 30%
Fifa de Chenou 06/04/19 0 0 - 0 -
Gaby de Gouye 05/04/19 1 0 - 0 -
Esperanza de Venzo 28/03/19 28 1 4% 3 11%
Flamenco Dream 25/03/19 0 0 - 0 -
Flying Wonder 24/03/19 12 1 8% 4 33%
Day To Day 14/03/19 39 4 10% 11 28%
Cadence d'Urzy 14/03/19 61 2 3% 11 18%
Desir de Banome 13/03/19 26 3 12% 5 19%
Etincelle du Caux 25/02/19 19 1 5% 4 21%
Ambiance du Loisir 22/01/19 66 9 14% 19 29%
Fleche d'Ete 21/01/19 3 0 - 0 -
Danyrose 04/01/19 29 0 - 4 14%
Danae de Coude 18/11/18 22 2 9% 5 23%
Eleve d'Urzy 21/10/18 7 1 14% 1 14%
Baccarat Griff 23/09/18 47 2 4% 8 17%
Urifan de Couddes 20/09/18 80 8 10% 26 33%
Casbah Wood 15/09/18 68 2 3% 7 10%
Faustine du Loisir 01/08/18 8 0 - 0 -
Ellioth du Raisine 31/07/18 6 0 - 1 17%